Time;durP1;ratioP1;P1;durP2;ratioP2;P2;SDS_P1;SDS_P2;PMS_P1;PMS_P2;Temp;Humidity;BMP_temperature;BMP_pressure;BME280_temperature;BME280_humidity;BME280_pressure;Samples;Min_cycle;Max_cycle;Signal;HPM_P1;HPM_P2
2024/04/15 00:00:18;;;;;;;2.97;1.10;;;;;;;;;;5355388;26;20020;-64
2024/04/15 00:02:43;;;;;;;2.08;1.30;;;;;;;;;;5342362;26;20017;-63
2024/04/15 00:05:09;;;;;;;3.38;1.67;;;;;;;;;;5346176;26;20081;-64
2024/04/15 00:07:34;;;;;;;7.53;1.25;;;;;;;;;;5344413;26;20012;-65
2024/04/15 00:09:59;;;;;;;2.05;1.15;;;;;;;;;;5345163;26;20411;-63
2024/04/15 00:12:25;;;;;;;0.82;0.75;;;;;;;;;;5345492;26;20067;-63
2024/04/15 00:14:50;;;;;;;3.53;0.98;;;;;;;;;;5344917;26;20001;-65
2024/04/15 00:17:16;;;;;;;2.60;1.73;;;;;;;;;;5342207;26;20415;-63
2024/04/15 00:19:41;;;;;;;1.83;1.17;;;;;;;;;;5344991;26;20293;-63
2024/04/15 00:22:06;;;;;;;1.48;0.60;;;;;;;;;;5345917;26;20277;-64
2024/04/15 00:24:32;;;;;;;2.03;0.80;;;;;;;;;;5350487;26;20009;-63
2024/04/15 00:26:57;;;;;;;3.45;0.85;;;;;;;;;;5379019;26;20015;-64
2024/04/15 00:29:22;;;;;;;2.10;0.70;;;;;;;;;;5380198;26;20015;-63
2024/04/15 00:31:48;;;;;;;2.13;0.70;;;;;;;;;;5380346;26;20411;-64
2024/04/15 00:34:14;;;;;;;1.85;0.85;;;;;;;;;;5379257;26;20004;-63
2024/04/15 00:36:39;;;;;;;1.92;0.80;;;;;;;;;;5376578;26;20276;-64
2024/04/15 00:39:05;;;;;;;2.00;0.75;;;;;;;;;;5344812;26;20001;-63
2024/04/15 00:41:30;;;;;;;4.22;1.05;;;;;;;;;;5345030;26;20011;-62
2024/04/15 00:43:56;;;;;;;3.70;0.80;;;;;;;;;;5348912;26;20016;-65
2024/04/15 00:46:21;;;;;;;2.15;0.77;;;;;;;;;;5378869;26;20418;-63
2024/04/15 00:48:47;;;;;;;2.70;0.70;;;;;;;;;;5383224;26;20031;-63
2024/04/15 00:51:13;;;;;;;2.28;0.70;;;;;;;;;;5383952;26;20051;-65
2024/04/15 00:53:39;;;;;;;5.88;0.93;;;;;;;;;;5380341;26;20004;-64
2024/04/15 00:56:04;;;;;;;1.52;0.73;;;;;;;;;;5381995;26;20011;-64
2024/04/15 00:58:30;;;;;;;2.88;0.80;;;;;;;;;;5383244;26;20007;-64
2024/04/15 01:00:57;;;;;;;1.33;0.70;;;;;;;;;;5383219;26;20000;-64
2024/04/15 01:03:23;;;;;;;1.27;0.73;;;;;;;;;;5382258;26;20000;-63
2024/04/15 01:05:49;;;;;;;2.20;0.90;;;;;;;;;;5381697;26;19996;-63
2024/04/15 01:08:15;;;;;;;1.92;0.85;;;;;;;;;;5361292;26;20009;-63
2024/04/15 01:10:40;;;;;;;3.83;0.98;;;;;;;;;;5348776;26;20013;-63
2024/04/15 01:13:06;;;;;;;2.38;0.80;;;;;;;;;;5347752;26;20013;-64
2024/04/15 01:15:31;;;;;;;2.38;0.77;;;;;;;;;;5345191;26;20415;-65
2024/04/15 01:17:57;;;;;;;6.22;0.98;;;;;;;;;;5347645;26;20017;-64
2024/04/15 01:20:23;;;;;;;3.97;0.95;;;;;;;;;;5348310;26;20289;-63
2024/04/15 01:22:53;;;;;;;3.47;1.10;;;;;;;;;;5364433;26;20023;-63
2024/04/15 01:25:19;;;;;;;1.95;0.90;;;;;;;;;;5381757;26;20031;-63
2024/04/15 01:27:44;;;;;;;1.67;0.82;;;;;;;;;;5364778;26;20308;-64
2024/04/15 01:30:10;;;;;;;2.53;1.38;;;;;;;;;;5346203;26;20393;-63
2024/04/15 01:32:35;;;;;;;4.20;1.90;;;;;;;;;;5347266;26;20087;-64
2024/04/15 01:35:00;;;;;;;3.25;1.67;;;;;;;;;;5346883;26;20293;-64
2024/04/15 01:37:27;;;;;;;3.80;1.95;;;;;;;;;;5360964;26;20078;-63
2024/04/15 01:39:53;;;;;;;3.65;1.88;;;;;;;;;;5379014;26;20485;-63
2024/04/15 01:42:18;;;;;;;6.18;2.20;;;;;;;;;;5381492;26;20016;-63
2024/04/15 01:44:43;;;;;;;4.50;1.50;;;;;;;;;;5382434;26;20000;-63
2024/04/15 01:47:09;;;;;;;4.18;2.08;;;;;;;;;;5381714;26;20012;-63
2024/04/15 01:49:34;;;;;;;8.52;2.00;;;;;;;;;;5381241;26;20000;-63
2024/04/15 01:51:59;;;;;;;4.28;1.92;;;;;;;;;;5379308;26;20008;-63
2024/04/15 01:54:25;;;;;;;4.47;1.77;;;;;;;;;;5355113;26;20450;-64
2024/04/15 01:56:50;;;;;;;2.72;1.13;;;;;;;;;;5378541;26;20004;-65
2024/04/15 01:59:15;;;;;;;5.28;2.13;;;;;;;;;;5355050;26;20023;-63
2024/04/15 02:01:41;;;;;;;3.47;1.77;;;;;;;;;;5365852;26;20005;-64
2024/04/15 02:04:07;;;;;;;3.75;1.60;;;;;;;;;;5346289;26;20004;-64
2024/04/15 02:06:32;;;;;;;4.78;1.65;;;;;;;;;;5346407;26;20008;-63
2024/04/15 02:08:57;;;;;;;2.03;1.50;;;;;;;;;;5364903;26;20008;-64
2024/04/15 02:11:23;;;;;;;3.92;1.10;;;;;;;;;;5380815;26;20015;-64
2024/04/15 02:13:49;;;;;;;4.57;1.40;;;;;;;;;;5379939;26;20011;-61
2024/04/15 02:16:14;;;;;;;2.17;1.00;;;;;;;;;;5382273;26;20032;-63
2024/04/15 02:18:40;;;;;;;1.98;0.93;;;;;;;;;;5371072;26;20004;-63
2024/04/15 02:21:05;;;;;;;3.35;1.33;;;;;;;;;;5344280;26;20008;-63
2024/04/15 02:23:31;;;;;;;1.55;0.90;;;;;;;;;;5346193;26;20415;-65
2024/04/15 02:25:56;;;;;;;1.58;0.88;;;;;;;;;;5347493;26;20007;-63
2024/04/15 02:28:22;;;;;;;2.80;0.73;;;;;;;;;;5346797;26;20408;-63
2024/04/15 02:30:50;;;;;;;6.13;1.23;;;;;;;;;;5346109;26;20008;-63
2024/04/15 02:33:15;;;;;;;2.08;0.90;;;;;;;;;;5346252;26;20015;-68
2024/04/15 02:35:41;;;;;;;2.78;0.70;;;;;;;;;;5354527;26;20016;-62
2024/04/15 02:38:06;;;;;;;4.88;1.08;;;;;;;;;;5381751;26;20013;-63
2024/04/15 02:40:31;;;;;;;3.33;1.00;;;;;;;;;;5380649;26;20004;-63
2024/04/15 02:42:57;;;;;;;6.35;1.25;;;;;;;;;;5377669;26;20024;-63
2024/04/15 02:45:22;;;;;;;2.30;0.90;;;;;;;;;;5353232;26;20301;-62
2024/04/15 02:47:47;;;;;;;3.70;0.88;;;;;;;;;;5347060;26;19997;-63
2024/04/15 02:50:13;;;;;;;5.30;0.88;;;;;;;;;;5345514;26;20046;-63
2024/04/15 02:52:38;;;;;;;6.90;0.82;;;;;;;;;;5343725;26;20015;-62
2024/04/15 02:55:04;;;;;;;3.83;0.90;;;;;;;;;;5346664;26;20001;-63
2024/04/15 02:57:29;;;;;;;2.97;0.80;;;;;;;;;;5346936;26;20384;-63
2024/04/15 02:59:54;;;;;;;2.85;0.70;;;;;;;;;;5345107;26;20392;-63
2024/04/15 03:02:20;;;;;;;4.00;1.08;;;;;;;;;;5345709;26;20418;-63
2024/04/15 03:04:45;;;;;;;4.45;1.20;;;;;;;;;;5346230;26;20001;-64
2024/04/15 03:07:11;;;;;;;2.25;0.80;;;;;;;;;;5348260;26;20718;-64
2024/04/15 03:09:36;;;;;;;3.92;1.00;;;;;;;;;;5345249;26;20019;-63
2024/04/15 03:12:01;;;;;;;4.03;0.88;;;;;;;;;;5345555;26;20005;-63
2024/04/15 03:14:27;;;;;;;3.88;1.10;;;;;;;;;;5346273;26;20009;-64
2024/04/15 03:16:52;;;;;;;4.32;1.05;;;;;;;;;;5344275;26;20296;-62
2024/04/15 03:19:18;;;;;;;4.00;1.00;;;;;;;;;;5345112;26;20096;-63
2024/04/15 03:21:43;;;;;;;3.70;1.20;;;;;;;;;;5345474;26;20008;-63
2024/04/15 03:24:09;;;;;;;4.40;1.00;;;;;;;;;;5347255;26;20020;-63
2024/04/15 03:26:34;;;;;;;3.08;1.00;;;;;;;;;;5345021;26;20004;-63
2024/04/15 03:28:59;;;;;;;3.50;1.30;;;;;;;;;;5345633;26;20012;-64
2024/04/15 03:31:25;;;;;;;4.20;1.10;;;;;;;;;;5344648;26;20149;-65
2024/04/15 03:33:50;;;;;;;4.82;1.00;;;;;;;;;;5348044;26;20105;-63
2024/04/15 03:36:16;;;;;;;3.95;1.10;;;;;;;;;;5344851;26;20115;-64
2024/04/15 03:38:41;;;;;;;5.25;1.00;;;;;;;;;;5345208;26;20012;-64
2024/04/15 03:41:06;;;;;;;2.60;0.90;;;;;;;;;;5345647;26;20012;-63
2024/04/15 03:43:33;;;;;;;3.92;1.00;;;;;;;;;;5346970;26;20013;-63
2024/04/15 03:45:58;;;;;;;4.50;1.13;;;;;;;;;;5374497;26;20150;-62
2024/04/15 03:48:24;;;;;;;3.08;1.05;;;;;;;;;;5380619;26;20541;-62
2024/04/15 03:50:49;;;;;;;4.63;1.50;;;;;;;;;;5349970;26;20013;-64
2024/04/15 03:53:14;;;;;;;3.70;1.10;;;;;;;;;;5344786;26;20011;-65
2024/04/15 03:55:40;;;;;;;3.70;1.13;;;;;;;;;;5345926;26;20087;-65
2024/04/15 03:58:05;;;;;;;4.57;1.40;;;;;;;;;;5344826;26;20001;-64
2024/04/15 04:00:30;;;;;;;3.42;1.45;;;;;;;;;;5346270;26;20083;-65
2024/04/15 04:02:56;;;;;;;4.38;1.13;;;;;;;;;;5345068;26;20005;-65
2024/04/15 04:05:21;;;;;;;3.97;1.10;;;;;;;;;;5345612;26;20432;-64
2024/04/15 04:07:47;;;;;;;2.08;1.40;;;;;;;;;;5344916;26;20012;-63
2024/04/15 04:10:14;;;;;;;3.03;1.50;;;;;;;;;;5344635;26;20419;-63
2024/04/15 04:12:39;;;;;;;3.20;1.38;;;;;;;;;;5346041;26;20416;-64
2024/04/15 04:15:05;;;;;;;4.30;1.10;;;;;;;;;;5345034;26;20016;-64
2024/04/15 04:17:30;;;;;;;3.42;1.05;;;;;;;;;;5367987;26;20023;-64
2024/04/15 04:19:55;;;;;;;10.35;0.98;;;;;;;;;;5383531;26;20078;-63
2024/04/15 04:22:21;;;;;;;3.67;1.13;;;;;;;;;;5384394;26;20004;-62
2024/04/15 04:24:46;;;;;;;6.70;6.10;;;;;;;;;;5370149;26;20431;-64
2024/04/15 04:27:11;;;;;;;5.05;1.30;;;;;;;;;;5347129;26;20268;-64
2024/04/15 04:29:37;;;;;;;4.28;2.08;;;;;;;;;;5361731;26;20004;-65
2024/04/15 04:32:03;;;;;;;3.55;1.25;;;;;;;;;;5383864;26;20008;-65
2024/04/15 04:34:29;;;;;;;4.55;1.30;;;;;;;;;;5383116;26;20011;-64
2024/04/15 04:36:55;;;;;;;2.20;1.73;;;;;;;;;;5382256;26;20010;-65
2024/04/15 04:39:20;;;;;;;4.10;2.15;;;;;;;;;;5381282;26;20000;-65
2024/04/15 04:41:45;;;;;;;2.92;2.45;;;;;;;;;;5383680;26;20004;-64
2024/04/15 04:44:11;;;;;;;3.55;2.80;;;;;;;;;;5380154;26;20004;-65
2024/04/15 04:46:36;;;;;;;2.50;2.28;;;;;;;;;;5381909;26;20342;-65
2024/04/15 04:49:02;;;;;;;6.00;2.88;;;;;;;;;;5381819;26;20418;-66
2024/04/15 04:51:27;;;;;;;3.63;2.17;;;;;;;;;;5355697;26;20019;-63
2024/04/15 04:53:53;;;;;;;4.65;2.10;;;;;;;;;;5348132;26;20001;-63
2024/04/15 04:56:18;;;;;;;3.33;1.58;;;;;;;;;;5372979;26;20019;-65
2024/04/15 04:58:44;;;;;;;2.05;1.05;;;;;;;;;;5375503;26;20004;-65
2024/04/15 05:01:14;;;;;;;3.80;1.27;;;;;;;;;;5382878;26;20004;-64
2024/04/15 05:03:41;;;;;;;3.50;1.20;;;;;;;;;;5340317;26;20033;-63
2024/04/15 05:06:06;;;;;;;3.50;1.20;;;;;;;;;;5312421;26;20074;-64
2024/04/15 05:08:32;;;;;;;3.10;1.00;;;;;;;;;;5313124;26;20009;-65
2024/04/15 05:10:57;;;;;;;3.72;1.25;;;;;;;;;;5284061;27;20002;-63
2024/04/15 05:13:23;;;;;;;2.25;1.00;;;;;;;;;;5318950;26;20014;-63
2024/04/15 05:15:48;;;;;;;4.28;1.02;;;;;;;;;;5347392;26;20808;-65
2024/04/15 05:18:13;;;;;;;4.82;1.10;;;;;;;;;;5347212;26;20009;-63
2024/04/15 05:20:39;;;;;;;7.07;1.25;;;;;;;;;;5336696;26;20016;-64
2024/04/15 05:23:04;;;;;;;5.72;1.15;;;;;;;;;;5312996;26;20289;-64
2024/04/15 05:25:29;;;;;;;2.78;1.20;;;;;;;;;;5312523;26;20006;-64
2024/04/15 05:27:55;;;;;;;5.38;1.20;;;;;;;;;;5316118;26;20037;-65
2024/04/15 05:30:20;;;;;;;4.00;1.38;;;;;;;;;;5347480;26;20004;-64
2024/04/15 05:32:45;;;;;;;3.47;1.38;;;;;;;;;;5343398;26;20096;-64
2024/04/15 05:35:11;;;;;;;5.13;1.20;;;;;;;;;;5313264;26;20010;-64
2024/04/15 05:37:36;;;;;;;5.25;1.58;;;;;;;;;;5312363;26;20363;-64
2024/04/15 05:40:02;;;;;;;6.37;1.37;;;;;;;;;;5311998;26;20074;-64
2024/04/15 05:42:28;;;;;;;3.97;1.10;;;;;;;;;;5313399;26;20543;-65
2024/04/15 05:44:54;;;;;;;3.20;1.33;;;;;;;;;;5345695;26;20019;-65
2024/04/15 05:47:19;;;;;;;3.72;1.25;;;;;;;;;;5346644;26;19999;-64
2024/04/15 05:49:44;;;;;;;4.68;1.30;;;;;;;;;;5347135;26;20001;-64
2024/04/15 05:52:10;;;;;;;7.70;1.30;;;;;;;;;;5345506;26;20049;-66
2024/04/15 05:54:35;;;;;;;6.10;1.50;;;;;;;;;;5346646;26;20148;-64
2024/04/15 05:57:01;;;;;;;5.95;1.67;;;;;;;;;;5343998;26;20243;-64
2024/04/15 05:59:27;;;;;;;4.70;1.25;;;;;;;;;;5318106;26;20010;-64
2024/04/15 06:01:52;;;;;;;4.35;1.15;;;;;;;;;;5321809;26;20005;-64
2024/04/15 06:04:18;;;;;;;2.95;1.23;;;;;;;;;;5345961;26;20005;-65
2024/04/15 06:06:43;;;;;;;4.77;1.20;;;;;;;;;;5347080;26;20035;-66
2024/04/15 06:09:08;;;;;;;6.23;1.33;;;;;;;;;;5352141;26;20268;-65
2024/04/15 06:11:34;;;;;;;4.22;1.23;;;;;;;;;;5346870;26;20642;-64
2024/04/15 06:13:59;;;;;;;6.60;1.52;;;;;;;;;;5353387;26;20013;-64
2024/04/15 06:16:25;;;;;;;6.30;1.20;;;;;;;;;;5347566;26;20001;-65
2024/04/15 06:18:50;;;;;;;5.60;1.40;;;;;;;;;;5347425;26;20013;-66
2024/04/15 06:21:15;;;;;;;6.40;1.33;;;;;;;;;;5344722;26;20247;-64
2024/04/15 06:23:41;;;;;;;2.72;1.00;;;;;;;;;;5346303;26;20375;-64
2024/04/15 06:26:07;;;;;;;5.45;1.67;;;;;;;;;;5347571;26;20005;-64
2024/04/15 06:28:32;;;;;;;6.55;1.70;;;;;;;;;;5374303;26;20019;-64
2024/04/15 06:30:58;;;;;;;6.78;1.20;;;;;;;;;;5381503;26;19996;-64
2024/04/15 06:33:23;;;;;;;4.85;1.33;;;;;;;;;;5378919;26;20019;-65
2024/04/15 06:35:48;;;;;;;6.07;1.63;;;;;;;;;;5382428;26;20383;-65
2024/04/15 06:38:14;;;;;;;6.63;1.50;;;;;;;;;;5381472;26;20273;-63
2024/04/15 06:40:40;;;;;;;3.45;1.40;;;;;;;;;;5379992;26;20222;-64
2024/04/15 06:43:06;;;;;;;6.00;1.65;;;;;;;;;;5373701;26;20326;-63
2024/04/15 06:45:32;;;;;;;5.32;1.48;;;;;;;;;;5380151;26;20310;-64
2024/04/15 06:47:59;;;;;;;8.10;1.60;;;;;;;;;;5379139;26;20004;-64
2024/04/15 06:50:24;;;;;;;5.95;1.45;;;;;;;;;;5377927;26;20084;-63
2024/04/15 06:52:51;;;;;;;7.00;1.50;;;;;;;;;;5370126;26;20009;-64
2024/04/15 06:55:17;;;;;;;5.97;1.45;;;;;;;;;;5378532;26;20376;-65
2024/04/15 06:57:43;;;;;;;7.63;1.70;;;;;;;;;;5378339;26;20338;-65
2024/04/15 07:00:09;;;;;;;5.97;1.40;;;;;;;;;;5368471;26;20016;-63
2024/04/15 07:02:34;;;;;;;4.60;1.52;;;;;;;;;;5344464;26;20012;-61
2024/04/15 07:05:00;;;;;;;8.50;1.80;;;;;;;;;;5346942;26;20005;-61
2024/04/15 07:07:28;;;;;;;9.73;1.63;;;;;;;;;;5346344;26;20008;-62
2024/04/15 07:09:53;;;;;;;6.88;1.67;;;;;;;;;;5345703;26;20235;-63
2024/04/15 07:12:19;;;;;;;4.72;1.42;;;;;;;;;;5345645;26;20001;-62
2024/04/15 07:14:45;;;;;;;5.53;2.10;;;;;;;;;;5347308;26;19996;-60
2024/04/15 07:17:10;;;;;;;5.82;1.35;;;;;;;;;;5345547;26;20016;-61
2024/04/15 07:19:35;;;;;;;8.15;2.42;;;;;;;;;;5346052;26;19997;-60
2024/04/15 07:22:01;;;;;;;4.07;1.30;;;;;;;;;;5345101;26;20013;-61
2024/04/15 07:24:27;;;;;;;4.63;1.50;;;;;;;;;;5347483;26;20427;-59
2024/04/15 07:26:52;;;;;;;6.30;1.40;;;;;;;;;;5375650;26;20004;-59
2024/04/15 07:29:18;;;;;;;8.63;1.52;;;;;;;;;;5380631;26;20011;-61
2024/04/15 07:31:43;;;;;;;9.40;2.03;;;;;;;;;;5381106;26;20006;-58
2024/04/15 07:34:09;;;;;;;4.80;1.20;;;;;;;;;;5380157;26;20004;-62
2024/04/15 07:36:34;;;;;;;6.00;1.92;;;;;;;;;;5380316;26;20011;-60
2024/04/15 07:38:59;;;;;;;8.98;1.65;;;;;;;;;;5381434;26;19996;-60
2024/04/15 07:41:25;;;;;;;8.38;2.00;;;;;;;;;;5379972;26;19996;-61
2024/04/15 07:43:50;;;;;;;10.70;1.73;;;;;;;;;;5380466;26;20285;-60
2024/04/15 07:46:16;;;;;;;4.00;1.30;;;;;;;;;;5381319;26;20011;-60
2024/04/15 07:48:41;;;;;;;5.63;1.23;;;;;;;;;;5380867;26;20008;-59
2024/04/15 07:51:07;;;;;;;5.20;1.25;;;;;;;;;;5379825;26;20011;-63
2024/04/15 07:53:32;;;;;;;5.22;1.35;;;;;;;;;;5381583;26;20505;-58
2024/04/15 07:55:58;;;;;;;7.85;1.33;;;;;;;;;;5380894;26;20008;-57
2024/04/15 07:58:23;;;;;;;7.28;1.30;;;;;;;;;;5380360;26;20007;-59
2024/04/15 08:00:48;;;;;;;6.18;1.25;;;;;;;;;;5380245;26;20392;-59
2024/04/15 08:03:14;;;;;;;5.50;1.40;;;;;;;;;;5380976;26;20092;-56
2024/04/15 08:05:39;;;;;;;8.40;1.40;;;;;;;;;;5380752;26;20075;-57
2024/04/15 08:08:06;;;;;;;4.90;1.60;;;;;;;;;;5379944;26;20011;-58
2024/04/15 08:10:31;;;;;;;10.13;1.58;;;;;;;;;;5381023;26;20032;-57
2024/04/15 08:12:57;;;;;;;6.70;1.27;;;;;;;;;;5380976;26;20398;-56
2024/04/15 08:15:22;;;;;;;9.00;1.63;;;;;;;;;;5380524;26;20291;-57
2024/04/15 08:17:47;;;;;;;7.20;1.48;;;;;;;;;;5380018;26;20007;-57
2024/04/15 08:20:13;;;;;;;8.80;1.63;;;;;;;;;;5378885;26;19996;-59
2024/04/15 08:22:38;;;;;;;7.80;1.52;;;;;;;;;;5381481;26;20003;-60
2024/04/15 08:25:08;;;;;;;4.53;1.40;;;;;;;;;;5380132;26;20350;-60
2024/04/15 08:27:37;;;;;;;4.22;1.17;;;;;;;;;;5379352;26;20000;-58
2024/04/15 08:30:03;;;;;;;5.82;1.23;;;;;;;;;;5378742;26;20004;-57
2024/04/15 08:32:33;;;;;;;6.70;1.50;;;;;;;;;;5380655;26;20000;-57
2024/04/15 08:34:58;;;;;;;2.78;1.05;;;;;;;;;;5379988;26;20000;-58
2024/04/15 08:37:24;;;;;;;9.27;1.63;;;;;;;;;;5379223;26;20024;-59
2024/04/15 08:39:49;;;;;;;8.10;1.77;;;;;;;;;;5380259;26;20011;-58
2024/04/15 08:42:21;;;;;;;4.00;1.38;;;;;;;;;;5380400;26;20000;-60
2024/04/15 08:44:48;;;;;;;10.52;1.55;;;;;;;;;;5380056;26;20004;-59
2024/04/15 08:47:22;;;;;;;6.90;1.75;;;;;;;;;;5379023;26;20012;-61
2024/04/15 08:49:48;;;;;;;8.25;1.52;;;;;;;;;;5380005;26;20004;-58
2024/04/15 08:52:16;;;;;;;5.00;1.20;;;;;;;;;;5380545;26;20004;-59
2024/04/15 08:54:41;;;;;;;8.10;1.48;;;;;;;;;;5380280;26;20004;-61
2024/04/15 08:57:09;;;;;;;7.43;1.20;;;;;;;;;;5379330;26;20039;-59
2024/04/15 08:59:35;;;;;;;6.05;1.58;;;;;;;;;;5377972;26;20004;-56
2024/04/15 09:02:00;;;;;;;7.43;1.35;;;;;;;;;;5379689;26;20074;-60
2024/04/15 09:04:26;;;;;;;11.23;1.40;;;;;;;;;;5380167;26;20008;-58
2024/04/15 09:07:00;;;;;;;14.13;1.70;;;;;;;;;;5382524;26;20000;-59
2024/04/15 09:09:26;;;;;;;7.72;1.63;;;;;;;;;;5382515;26;20001;-60
2024/04/15 09:11:52;;;;;;;5.93;1.42;;;;;;;;;;5382403;26;20011;-62
2024/04/15 09:14:18;;;;;;;5.55;1.63;;;;;;;;;;5382568;26;20011;-59
2024/04/15 09:16:43;;;;;;;6.75;1.05;;;;;;;;;;5382355;26;20000;-55
2024/04/15 09:19:09;;;;;;;7.32;1.50;;;;;;;;;;5382990;26;20011;-60
2024/04/15 09:21:36;;;;;;;8.10;1.30;;;;;;;;;;5382628;26;20046;-58
2024/04/15 09:24:02;;;;;;;6.35;1.25;;;;;;;;;;5382319;26;20354;-60
2024/04/15 09:26:27;;;;;;;5.80;1.30;;;;;;;;;;5383223;26;20008;-58
2024/04/15 09:28:52;;;;;;;5.80;1.10;;;;;;;;;;5382564;26;20011;-59
2024/04/15 09:31:18;;;;;;;7.32;1.30;;;;;;;;;;5382010;26;20367;-59
2024/04/15 09:33:43;;;;;;;5.43;1.33;;;;;;;;;;5383167;26;20078;-57
2024/04/15 09:36:09;;;;;;;7.75;1.70;;;;;;;;;;5382949;26;20000;-60
2024/04/15 09:38:35;;;;;;;5.65;1.17;;;;;;;;;;5380718;26;20012;-59
2024/04/15 09:41:01;;;;;;;6.05;1.40;;;;;;;;;;5383083;26;20005;-59
2024/04/15 09:43:27;;;;;;;6.00;1.40;;;;;;;;;;5382773;26;20276;-58
2024/04/15 09:45:54;;;;;;;6.88;1.63;;;;;;;;;;5382099;26;20004;-59
2024/04/15 09:48:22;;;;;;;7.32;1.35;;;;;;;;;;5383112;26;20004;-58
2024/04/15 09:50:50;;;;;;;6.82;1.30;;;;;;;;;;5383280;26;20000;-55
2024/04/15 09:53:18;;;;;;;4.88;1.40;;;;;;;;;;5381952;26;20465;-58
2024/04/15 09:55:50;;;;;;;9.20;1.67;;;;;;;;;;5382380;26;20016;-55
2024/04/15 09:58:17;;;;;;;9.50;1.90;;;;;;;;;;5382898;26;20011;-61
2024/04/15 10:00:43;;;;;;;4.80;1.52;;;;;;;;;;5381009;26;20082;-56
2024/04/15 10:03:13;;;;;;;7.35;1.30;;;;;;;;;;5381429;26;20020;-59
2024/04/15 10:05:40;;;;;;;5.82;1.05;;;;;;;;;;5380448;26;20256;-56
2024/04/15 10:08:06;;;;;;;5.45;1.45;;;;;;;;;;5382630;26;20015;-58
2024/04/15 10:10:32;;;;;;;5.65;1.50;;;;;;;;;;5382061;26;20008;-59
2024/04/15 10:13:02;;;;;;;8.00;1.50;;;;;;;;;;5381428;26;20004;-57
2024/04/15 10:15:28;;;;;;;8.75;1.30;;;;;;;;;;5382449;26;20075;-57
2024/04/15 10:18:04;;;;;;;5.00;1.40;;;;;;;;;;5382166;26;20004;-59
2024/04/15 10:20:36;;;;;;;6.45;1.20;;;;;;;;;;5381802;26;20086;-53
2024/04/15 10:23:05;;;;;;;8.00;1.33;;;;;;;;;;5380804;26;20352;-57
2024/04/15 10:25:31;;;;;;;5.53;1.17;;;;;;;;;;5381966;26;20078;-60
2024/04/15 10:27:59;;;;;;;6.10;1.17;;;;;;;;;;5382622;26;20000;-60
2024/04/15 10:30:28;;;;;;;4.95;1.42;;;;;;;;;;5381624;26;20308;-59
2024/04/15 10:32:57;;;;;;;9.43;1.88;;;;;;;;;;5381210;26;20407;-58
2024/04/15 10:35:24;;;;;;;12.15;2.22;;;;;;;;;;5382240;26;20382;-57
2024/04/15 10:37:50;;;;;;;6.35;1.80;;;;;;;;;;5382214;26;20015;-60
2024/04/15 10:40:15;;;;;;;8.45;1.90;;;;;;;;;;5380283;26;20367;-59
2024/04/15 10:42:41;;;;;;;6.85;1.80;;;;;;;;;;5381029;26;20004;-57
2024/04/15 10:45:15;;;;;;;9.52;1.30;;;;;;;;;;5381684;26;20389;-59
2024/04/15 10:47:41;;;;;;;7.82;1.10;;;;;;;;;;5380617;26;20404;-56
2024/04/15 10:50:08;;;;;;;5.13;1.35;;;;;;;;;;5381828;26;20054;-56
2024/04/15 10:52:33;;;;;;;6.63;1.10;;;;;;;;;;5380886;26;20371;-58
2024/04/15 10:54:59;;;;;;;5.50;1.27;;;;;;;;;;5381677;26;20011;-58
2024/04/15 10:57:25;;;;;;;6.53;1.02;;;;;;;;;;5381901;26;20075;-59
2024/04/15 10:59:50;;;;;;;7.45;1.42;;;;;;;;;;5380783;26;20004;-56
2024/04/15 11:02:16;;;;;;;5.63;1.25;;;;;;;;;;5380939;26;20015;-56
2024/04/15 11:04:41;;;;;;;8.63;1.50;;;;;;;;;;5380647;26;20015;-58
2024/04/15 11:07:07;;;;;;;6.93;1.20;;;;;;;;;;5380756;26;20002;-59
2024/04/15 11:09:32;;;;;;;7.07;1.20;;;;;;;;;;5380872;26;20074;-59
2024/04/15 11:11:58;;;;;;;2.83;1.17;;;;;;;;;;5381049;26;20098;-58
2024/04/15 11:14:23;;;;;;;8.70;1.38;;;;;;;;;;5380943;26;20015;-59
2024/04/15 11:16:49;;;;;;;15.30;1.30;;;;;;;;;;5381515;26;20012;-61
2024/04/15 11:19:16;;;;;;;6.43;1.65;;;;;;;;;;5380864;26;20004;-56
2024/04/15 11:21:41;;;;;;;10.80;1.50;;;;;;;;;;5381678;26;20521;-60
2024/04/15 11:24:07;;;;;;;9.82;1.30;;;;;;;;;;5381182;26;20012;-59
2024/04/15 11:26:36;;;;;;;6.60;1.50;;;;;;;;;;5377336;26;20108;-55
2024/04/15 11:29:06;;;;;;;5.75;1.25;;;;;;;;;;5381850;26;20015;-60
2024/04/15 11:31:31;;;;;;;8.48;1.75;;;;;;;;;;5380934;26;20004;-58
2024/04/15 11:33:56;;;;;;;6.68;1.27;;;;;;;;;;5380573;26;20004;-61
2024/04/15 11:36:22;;;;;;;10.13;1.40;;;;;;;;;;5381375;26;20289;-61
2024/04/15 11:38:48;;;;;;;7.80;1.27;;;;;;;;;;5381327;26;20387;-59
2024/04/15 11:41:14;;;;;;;5.85;1.00;;;;;;;;;;5379902;26;20014;-61
2024/04/15 11:43:40;;;;;;;3.78;1.02;;;;;;;;;;5380701;26;20415;-59
2024/04/15 11:46:07;;;;;;;3.65;0.93;;;;;;;;;;5381684;26;20008;-58
2024/04/15 11:48:32;;;;;;;5.07;1.33;;;;;;;;;;5380689;26;20040;-61
2024/04/15 11:50:57;;;;;;;11.52;1.42;;;;;;;;;;5380871;26;20051;-58
2024/04/15 11:53:24;;;;;;;7.07;1.20;;;;;;;;;;5381325;26;20299;-59
2024/04/15 11:55:51;;;;;;;7.53;1.15;;;;;;;;;;5381520;26;20007;-58
2024/04/15 11:58:16;;;;;;;4.25;1.23;;;;;;;;;;5380904;26;20004;-60
2024/04/15 12:00:42;;;;;;;8.00;1.27;;;;;;;;;;5380705;26;20004;-57
2024/04/15 12:03:07;;;;;;;4.22;1.00;;;;;;;;;;5380880;26;20004;-60
2024/04/15 12:05:33;;;;;;;5.60;1.38;;;;;;;;;;5380718;26;20015;-62
2024/04/15 12:07:58;;;;;;;8.18;1.13;;;;;;;;;;5380178;26;20004;-60
2024/04/15 12:10:23;;;;;;;5.60;1.50;;;;;;;;;;5380663;26;20004;-62
2024/04/15 12:12:49;;;;;;;6.57;1.60;;;;;;;;;;5368291;26;20017;-60
2024/04/15 12:15:15;;;;;;;5.72;1.50;;;;;;;;;;5370903;26;20004;-63
2024/04/15 12:17:42;;;;;;;5.40;1.40;;;;;;;;;;5373053;26;20000;-64
2024/04/15 12:20:10;;;;;;;3.10;1.10;;;;;;;;;;5348087;26;20017;-64
2024/04/15 12:22:35;;;;;;;10.80;1.38;;;;;;;;;;5371317;26;20019;-63
2024/04/15 12:25:01;;;;;;;5.03;1.30;;;;;;;;;;5377031;26;20004;-64
2024/04/15 12:27:26;;;;;;;6.47;1.30;;;;;;;;;;5375771;26;20005;-63
2024/04/15 12:29:52;;;;;;;14.13;1.20;;;;;;;;;;5378860;26;20004;-62
2024/04/15 12:32:17;;;;;;;5.88;1.38;;;;;;;;;;5379896;26;20024;-61
2024/04/15 12:34:42;;;;;;;6.45;1.20;;;;;;;;;;5379687;26;19992;-62
2024/04/15 12:37:08;;;;;;;5.03;1.33;;;;;;;;;;5379015;26;20000;-63
2024/04/15 12:39:34;;;;;;;4.47;1.20;;;;;;;;;;5374816;26;20102;-62
2024/04/15 12:41:59;;;;;;;5.15;1.60;;;;;;;;;;5348608;26;20011;-62
2024/04/15 12:44:25;;;;;;;6.72;1.45;;;;;;;;;;5348816;26;20019;-61
2024/04/15 12:46:50;;;;;;;4.93;1.17;;;;;;;;;;5377163;26;20009;-63
2024/04/15 12:49:15;;;;;;;3.88;1.15;;;;;;;;;;5382202;26;20000;-61
2024/04/15 12:51:41;;;;;;;3.33;1.10;;;;;;;;;;5381696;26;20005;-62
2024/04/15 12:54:06;;;;;;;3.75;1.13;;;;;;;;;;5381045;26;20391;-63
2024/04/15 12:56:32;;;;;;;4.55;1.00;;;;;;;;;;5365508;26;20001;-63
2024/04/15 12:58:57;;;;;;;3.13;1.05;;;;;;;;;;5382024;26;20010;-63
2024/04/15 13:01:23;;;;;;;5.00;1.20;;;;;;;;;;5358657;26;20004;-64
2024/04/15 13:03:48;;;;;;;8.13;0.95;;;;;;;;;;5347173;26;19997;-64
2024/04/15 13:06:13;;;;;;;4.72;1.38;;;;;;;;;;5346542;26;20001;-62
2024/04/15 13:08:39;;;;;;;4.82;1.15;;;;;;;;;;5345600;26;20007;-60
2024/04/15 13:11:05;;;;;;;2.60;1.15;;;;;;;;;;5316725;26;20004;-63
2024/04/15 13:13:30;;;;;;;4.68;1.20;;;;;;;;;;5379470;26;20008;-59
2024/04/15 13:15:56;;;;;;;3.38;1.10;;;;;;;;;;5353720;26;20001;-60
2024/04/15 13:18:21;;;;;;;4.28;1.40;;;;;;;;;;5347636;26;20004;-59
2024/04/15 13:20:46;;;;;;;3.80;1.48;;;;;;;;;;5347167;26;20000;-63
2024/04/15 13:23:15;;;;;;;4.70;1.23;;;;;;;;;;5346699;26;20068;-62
2024/04/15 13:25:40;;;;;;;4.20;1.00;;;;;;;;;;5370625;26;20079;-61
2024/04/15 13:28:07;;;;;;;6.07;1.05;;;;;;;;;;5367539;26;20004;-62
2024/04/15 13:30:33;;;;;;;5.28;1.38;;;;;;;;;;5362353;26;20020;-63
2024/04/15 13:32:58;;;;;;;6.20;1.55;;;;;;;;;;5377761;26;20016;-65
2024/04/15 13:35:23;;;;;;;3.80;1.30;;;;;;;;;;5377588;26;20008;-63
2024/04/15 13:37:49;;;;;;;4.07;1.30;;;;;;;;;;5378952;26;20005;-64
2024/04/15 13:40:15;;;;;;;5.05;1.60;;;;;;;;;;5372360;26;20000;-63
2024/04/15 13:42:40;;;;;;;4.32;1.65;;;;;;;;;;5372441;26;20019;-62
2024/04/15 13:45:06;;;;;;;2.60;1.35;;;;;;;;;;5373041;26;20281;-65
2024/04/15 13:47:32;;;;;;;5.03;1.40;;;;;;;;;;5347337;26;20015;-65
2024/04/15 13:49:57;;;;;;;4.63;1.33;;;;;;;;;;5360657;26;20036;-64
2024/04/15 13:52:23;;;;;;;4.45;1.80;;;;;;;;;;5379068;26;20005;-66
2024/04/15 13:54:50;;;;;;;6.13;1.70;;;;;;;;;;5352541;26;20419;-68
2024/04/15 13:57:15;;;;;;;5.18;1.48;;;;;;;;;;5346526;26;20008;-63
2024/04/15 13:59:41;;;;;;;5.00;1.65;;;;;;;;;;5365987;26;20004;-64
2024/04/15 14:02:07;;;;;;;6.03;1.45;;;;;;;;;;5379685;26;20000;-64
2024/04/15 14:04:32;;;;;;;4.72;1.20;;;;;;;;;;5370457;26;20331;-65
2024/04/15 14:06:57;;;;;;;3.53;1.20;;;;;;;;;;5380818;26;20090;-65
2024/04/15 14:09:24;;;;;;;6.97;1.60;;;;;;;;;;5373733;26;20324;-66
2024/04/15 14:11:50;;;;;;;4.60;1.08;;;;;;;;;;5362622;26;20015;-65
2024/04/15 14:14:16;;;;;;;3.75;0.90;;;;;;;;;;5379216;26;20265;-66
2024/04/15 14:16:48;;;;;;;2.35;0.98;;;;;;;;;;5376617;26;20011;-64
2024/04/15 14:19:14;;;;;;;2.45;0.80;;;;;;;;;;5372473;26;20405;-65
2024/04/15 14:21:39;;;;;;;2.25;0.95;;;;;;;;;;5347134;26;20019;-63
2024/04/15 14:24:05;;;;;;;4.43;0.90;;;;;;;;;;5360573;26;20033;-63
2024/04/15 14:26:30;;;;;;;3.25;0.88;;;;;;;;;;5380538;26;20407;-63
2024/04/15 14:28:56;;;;;;;3.67;1.10;;;;;;;;;;5373089;26;20000;-63
2024/04/15 14:31:21;;;;;;;1.83;0.80;;;;;;;;;;5355824;26;20024;-66
2024/04/15 14:33:47;;;;;;;5.53;1.00;;;;;;;;;;5344114;26;20001;-65